createdAt,value
2018-12-18T00:02:00.141Z,7.10
2018-12-18T00:04:04.463Z,7.10
2018-12-18T00:06:07.891Z,7.10
2018-12-18T00:08:11.275Z,7.20
2018-12-18T00:10:14.514Z,7.20
2018-12-18T00:12:17.673Z,7.20
2018-12-18T00:14:21.558Z,7.20
2018-12-18T00:16:24.717Z,7.20
2018-12-18T00:18:28.346Z,7.20
2018-12-18T00:20:31.726Z,7.20
2018-12-18T00:22:35.016Z,7.20
2018-12-18T00:24:38.464Z,7.20
2018-12-18T00:26:41.866Z,7.20
2018-12-18T00:28:45.049Z,7.30
2018-12-18T00:30:48.501Z,7.30
2018-12-18T00:32:51.844Z,7.30
2018-12-18T00:34:56.149Z,7.30
2018-12-18T00:39:59.834Z,7.30
2018-12-18T00:42:08.615Z,7.30
2018-12-18T00:44:14.315Z,7.30
2018-12-18T00:46:20.310Z,7.30
2018-12-18T00:48:35.499Z,7.30
2018-12-18T00:50:46.219Z,7.30
2018-12-18T00:52:52.395Z,7.30
2018-12-18T00:54:56.323Z,7.30
2018-12-18T00:56:59.793Z,7.30
2018-12-18T00:59:04.128Z,7.30
2018-12-18T01:01:10.104Z,7.30
2018-12-18T01:03:14.836Z,7.40
2018-12-18T01:05:19.000Z,7.40
2018-12-18T01:07:22.446Z,7.40
2018-12-18T01:09:25.996Z,7.40
2018-12-18T01:11:31.933Z,7.40
2018-12-18T01:13:43.511Z,7.40
2018-12-18T01:15:51.169Z,7.40
2018-12-18T01:17:58.737Z,7.30
2018-12-18T01:20:18.171Z,7.30
2018-12-18T01:22:28.137Z,7.30
2018-12-18T01:24:35.435Z,7.30
2018-12-18T01:26:46.059Z,7.30
2018-12-18T01:28:50.710Z,7.30
2018-12-18T01:30:58.783Z,7.30
2018-12-18T01:33:06.050Z,7.30
2018-12-18T01:35:15.750Z,7.30
2018-12-18T01:37:21.696Z,7.30
2018-12-18T01:39:28.660Z,7.30
2018-12-18T01:41:38.939Z,7.30
2018-12-18T01:43:43.915Z,7.30
2018-12-18T01:45:53.008Z,7.30
2018-12-18T01:48:03.609Z,7.30
2018-12-18T01:50:09.419Z,7.30
2018-12-18T01:52:13.832Z,7.30
2018-12-18T01:54:17.045Z,7.30
2018-12-18T01:56:20.415Z,7.40
2018-12-18T01:58:24.034Z,7.30
2018-12-18T02:00:28.167Z,7.30
2018-12-18T02:02:31.795Z,7.30
2018-12-18T02:04:39.178Z,7.30
2018-12-18T02:06:44.678Z,7.30
2018-12-18T02:08:49.828Z,7.30
2018-12-18T02:10:53.216Z,7.30
2018-12-18T02:12:56.797Z,7.30
2018-12-18T02:15:01.059Z,7.30
2018-12-18T02:17:05.191Z,7.30
2018-12-18T02:19:08.627Z,7.40
2018-12-18T02:21:12.112Z,7.40
2018-12-18T02:23:19.481Z,7.40
2018-12-18T02:25:23.989Z,7.40
2018-12-18T02:27:27.994Z,7.40
2018-12-18T02:29:31.690Z,7.40
2018-12-18T02:31:35.134Z,7.40
2018-12-18T02:33:38.575Z,7.30
2018-12-18T02:35:43.535Z,7.30
2018-12-18T02:37:55.489Z,7.30
2018-12-18T02:39:59.274Z,7.30
2018-12-18T02:42:02.860Z,7.30
2018-12-18T02:44:06.316Z,7.30
2018-12-18T02:46:09.704Z,7.30
2018-12-18T02:48:13.346Z,7.30
2018-12-18T02:50:16.669Z,7.30
2018-12-18T02:52:19.963Z,7.30
2018-12-18T02:54:23.487Z,7.30
2018-12-18T02:56:27.880Z,7.30
2018-12-18T02:58:31.335Z,7.30
2018-12-18T03:00:35.448Z,7.20
2018-12-18T03:02:38.941Z,7.20
2018-12-18T03:04:42.971Z,7.10
2018-12-18T03:06:48.065Z,7.10
2018-12-18T03:08:51.950Z,7.10
2018-12-18T03:10:55.417Z,7.10
2018-12-18T03:12:59.602Z,7.20
2018-12-18T03:15:03.989Z,7.20
2018-12-18T03:17:09.525Z,7.10
2018-12-18T03:19:13.064Z,7.20
2018-12-18T03:21:18.166Z,7.20
2018-12-18T03:23:22.501Z,7.20
2018-12-18T03:25:27.382Z,7.20
2018-12-18T03:27:31.895Z,7.20
2018-12-18T03:29:35.312Z,7.20
2018-12-18T03:31:40.900Z,7.20
2018-12-18T03:33:44.223Z,7.30
2018-12-18T03:35:47.556Z,7.30
2018-12-18T03:37:50.716Z,7.30
2018-12-18T03:39:54.151Z,7.30
2018-12-18T03:41:57.343Z,7.30
2018-12-18T03:44:00.583Z,7.30
2018-12-18T03:46:03.974Z,7.30
2018-12-18T03:48:07.255Z,7.30
2018-12-18T03:50:10.778Z,7.30
2018-12-18T03:52:14.006Z,7.30
2018-12-18T03:54:17.135Z,7.30
2018-12-18T03:56:20.400Z,7.20
2018-12-18T03:58:23.579Z,7.20
2018-12-18T04:00:26.911Z,7.20
2018-12-18T04:02:30.119Z,7.20
2018-12-18T04:04:35.701Z,7.20
2018-12-18T04:06:38.522Z,7.20
2018-12-18T04:08:41.857Z,7.20
2018-12-18T04:10:45.203Z,7.20
2018-12-18T04:12:48.447Z,7.20
2018-12-18T04:14:52.205Z,7.20
2018-12-18T04:16:55.617Z,7.20
2018-12-18T04:18:58.967Z,7.20
2018-12-18T04:21:02.296Z,7.20
2018-12-18T04:23:05.626Z,7.20
2018-12-18T04:25:09.559Z,7.20
2018-12-18T04:27:12.865Z,7.20
2018-12-18T04:29:16.263Z,7.20
2018-12-18T04:31:19.691Z,7.20
2018-12-18T04:33:23.197Z,7.20
2018-12-18T04:35:26.507Z,7.20
2018-12-18T04:37:31.835Z,7.20
2018-12-18T04:39:35.509Z,7.20
2018-12-18T04:41:38.783Z,7.20
2018-12-18T04:43:43.095Z,7.20
2018-12-18T04:45:46.765Z,7.10
2018-12-18T04:47:53.119Z,7.10
2018-12-18T04:49:56.755Z,7.00
2018-12-18T04:52:03.413Z,7.00
2018-12-18T04:54:09.690Z,7.00
2018-12-18T04:56:15.434Z,6.90
2018-12-18T04:58:21.252Z,6.90
2018-12-18T05:00:29.298Z,7.00
2018-12-18T05:02:43.192Z,6.90
2018-12-18T05:04:50.782Z,6.90
2018-12-18T05:06:54.758Z,6.90
2018-12-18T05:08:59.104Z,6.90
2018-12-18T05:11:04.803Z,6.90
2018-12-18T05:13:11.502Z,6.90
2018-12-18T05:15:17.311Z,6.80
2018-12-18T05:17:21.147Z,6.80
2018-12-18T05:19:24.712Z,6.80
2018-12-18T05:21:28.351Z,6.70
2018-12-18T05:23:31.824Z,6.70
2018-12-18T05:25:35.462Z,6.70
2018-12-18T05:27:38.751Z,6.70
2018-12-18T05:29:42.300Z,6.70
2018-12-18T05:31:45.577Z,6.70
2018-12-18T05:33:48.954Z,6.70
2018-12-18T05:35:52.106Z,6.70
2018-12-18T05:37:55.675Z,6.80
2018-12-18T05:39:58.951Z,6.80
2018-12-18T05:42:02.524Z,6.90
2018-12-18T05:44:05.888Z,6.90
2018-12-18T05:46:09.271Z,6.90
2018-12-18T05:48:12.443Z,6.90
2018-12-18T05:50:15.923Z,6.90
2018-12-18T05:52:19.255Z,6.90
2018-12-18T05:54:22.574Z,7.00
2018-12-18T05:56:26.130Z,7.00
2018-12-18T05:58:29.327Z,7.00
2018-12-18T06:00:35.315Z,7.00
2018-12-18T06:02:39.670Z,7.00
2018-12-18T06:04:43.703Z,7.00
2018-12-18T06:06:47.161Z,7.00
2018-12-18T06:08:50.408Z,7.00
2018-12-18T06:10:53.646Z,7.00
2018-12-18T06:12:56.863Z,7.00
2018-12-18T06:14:59.990Z,7.10
2018-12-18T06:17:03.170Z,7.10
2018-12-18T06:19:06.324Z,7.10
2018-12-18T06:21:09.444Z,7.10
2018-12-18T06:28:56.220Z,7.10
2018-12-18T06:31:00.456Z,7.10
2018-12-18T06:33:06.448Z,7.10
2018-12-18T06:35:18.517Z,7.10
2018-12-18T06:37:25.859Z,7.10
2018-12-18T06:39:31.468Z,7.10
2018-12-18T06:41:35.218Z,7.10
2018-12-18T06:43:38.509Z,7.10
2018-12-18T06:45:41.742Z,7.10
2018-12-18T06:47:44.934Z,7.10
2018-12-18T06:49:48.081Z,7.10
2018-12-18T06:51:51.214Z,7.10
2018-12-18T06:53:55.653Z,7.10
2018-12-18T06:55:58.863Z,7.10
2018-12-18T06:58:02.958Z,7.10
2018-12-18T07:00:09.250Z,7.10
2018-12-18T07:02:12.556Z,7.10
2018-12-18T07:04:15.740Z,7.10
2018-12-18T07:06:18.938Z,7.10
2018-12-18T07:08:22.112Z,7.00
2018-12-18T07:10:25.310Z,7.00
2018-12-18T07:12:28.502Z,6.90
2018-12-18T07:14:31.666Z,6.90
2018-12-18T07:16:34.788Z,6.90
2018-12-18T07:18:38.058Z,6.80
2018-12-18T07:20:41.250Z,6.80
2018-12-18T07:22:44.491Z,6.80
2018-12-18T07:24:48.344Z,6.80
2018-12-18T07:26:52.513Z,6.80
2018-12-18T07:28:57.515Z,6.70
2018-12-18T07:31:02.150Z,6.70
2018-12-18T07:33:06.378Z,6.70
2018-12-18T07:35:23.316Z,6.70
2018-12-18T07:37:26.981Z,6.60
2018-12-18T07:39:34.679Z,6.60
2018-12-18T07:41:38.874Z,6.60
2018-12-18T07:43:45.374Z,6.70
2018-12-18T07:45:50.000Z,6.70
2018-12-18T07:47:54.982Z,6.70
2018-12-18T07:50:00.491Z,6.70
2018-12-18T07:52:05.744Z,6.70
2018-12-18T07:54:09.177Z,6.70
2018-12-18T07:56:12.448Z,6.70
2018-12-18T07:58:15.944Z,6.70
2018-12-18T08:00:20.852Z,6.70
2018-12-18T08:02:24.213Z,6.60
2018-12-18T08:04:27.472Z,6.60
2018-12-18T08:06:31.454Z,6.50
2018-12-18T08:08:34.690Z,6.40
2018-12-18T08:10:37.879Z,6.30
2018-12-18T08:12:41.021Z,6.20
2018-12-18T08:14:44.166Z,6.10
2018-12-18T08:16:47.322Z,6.10
2018-12-18T08:18:50.425Z,6.00
2018-12-18T08:20:53.735Z,5.90
2018-12-18T08:22:56.848Z,5.90
2018-12-18T08:25:00.095Z,5.90
2018-12-18T08:27:03.376Z,6.00
2018-12-18T08:29:08.160Z,6.00
2018-12-18T08:31:12.736Z,6.00
2018-12-18T08:33:16.113Z,5.90
2018-12-18T08:35:19.471Z,5.90
2018-12-18T08:37:24.591Z,5.90
2018-12-18T08:39:28.491Z,5.90
2018-12-18T08:41:32.312Z,5.90
2018-12-18T08:43:35.704Z,5.90
2018-12-18T08:45:39.058Z,5.90
2018-12-18T08:47:42.350Z,5.90
2018-12-18T08:49:48.603Z,5.90
2018-12-18T08:51:52.186Z,5.90
2018-12-18T08:53:55.608Z,5.90
2018-12-18T08:55:58.799Z,6.00
2018-12-18T08:58:02.099Z,6.00
2018-12-18T09:00:07.161Z,6.00
2018-12-18T09:02:10.335Z,6.00
2018-12-18T09:04:13.801Z,6.00
2018-12-18T09:06:17.716Z,6.10
2018-12-18T09:08:21.261Z,6.10
2018-12-18T09:10:24.623Z,6.10
2018-12-18T09:12:38.063Z,6.20
2018-12-18T09:14:46.597Z,6.20
2018-12-18T09:17:11.144Z,6.20
2018-12-18T09:19:20.472Z,6.20
2018-12-18T09:21:24.799Z,6.30
2018-12-18T09:23:31.582Z,6.30
2018-12-18T09:25:34.902Z,6.30
2018-12-18T09:27:38.148Z,6.40
2018-12-18T09:29:41.409Z,6.40
2018-12-18T09:31:45.324Z,6.40
2018-12-18T09:33:49.592Z,6.40
2018-12-18T09:35:55.993Z,6.40
2018-12-18T09:38:05.240Z,6.50
2018-12-18T09:40:11.509Z,6.60
2018-12-18T09:42:20.111Z,6.60
2018-12-18T09:44:23.394Z,6.60
2018-12-18T09:46:26.936Z,6.70
2018-12-18T09:48:30.955Z,6.70
2018-12-18T09:50:34.148Z,6.70
2018-12-18T09:52:55.355Z,6.70
2018-12-18T09:57:30.793Z,6.80
2018-12-18T09:59:34.172Z,6.90
2018-12-18T10:01:40.117Z,6.90
2018-12-18T10:03:56.035Z,7.00
2018-12-18T10:06:04.692Z,7.00
2018-12-18T10:21:12.592Z,7.00
2018-12-18T10:25:40.711Z,7.30
2018-12-18T10:27:44.828Z,7.30
2018-12-18T10:29:49.444Z,7.30
2018-12-18T10:31:55.405Z,7.40
2018-12-18T10:33:58.724Z,7.40
2018-12-18T10:36:03.428Z,7.50
2018-12-18T10:38:11.189Z,7.50
2018-12-18T10:40:15.825Z,7.60
2018-12-18T10:42:23.095Z,7.60
2018-12-18T10:44:29.144Z,7.60
2018-12-18T10:46:34.770Z,7.60
2018-12-18T10:48:40.725Z,7.70
2018-12-18T10:50:52.111Z,7.70
2018-12-18T10:53:00.850Z,7.70
2018-12-18T10:55:04.722Z,7.70
2018-12-18T10:57:09.341Z,7.70
2018-12-18T10:59:13.820Z,7.80
2018-12-18T11:01:23.500Z,7.80
2018-12-18T11:03:28.787Z,7.90
2018-12-18T11:05:34.495Z,7.90
2018-12-18T11:07:37.997Z,7.90
2018-12-18T11:09:42.087Z,8.00
2018-12-18T11:11:46.393Z,8.00
2018-12-18T11:13:49.924Z,8.00
2018-12-18T11:15:56.291Z,8.10
2018-12-18T11:18:01.909Z,8.10
2018-12-18T11:20:08.811Z,8.10
2018-12-18T11:22:14.990Z,8.10
2018-12-18T11:24:19.588Z,8.20
2018-12-18T11:26:25.596Z,8.20
2018-12-18T11:28:34.915Z,8.20
2018-12-18T11:30:39.836Z,8.30
2018-12-18T11:32:43.323Z,8.30
2018-12-18T11:34:46.832Z,8.30
2018-12-18T11:36:51.081Z,8.30
2018-12-18T11:38:56.631Z,8.30
2018-12-18T11:41:01.007Z,8.30
2018-12-18T11:43:06.603Z,8.40
2018-12-18T11:45:09.919Z,8.40
2018-12-18T11:47:15.684Z,8.40
2018-12-18T11:49:21.015Z,8.50
2018-12-18T11:51:27.263Z,8.50
2018-12-18T11:53:32.427Z,8.50
2018-12-18T11:55:37.435Z,8.60
2018-12-18T11:57:49.571Z,8.60
2018-12-18T11:59:53.052Z,8.60
2018-12-18T12:02:08.275Z,8.60
2018-12-18T12:04:12.283Z,8.70
2018-12-18T12:06:15.658Z,8.70
2018-12-18T12:08:18.979Z,8.70
2018-12-18T12:10:22.699Z,8.80
2018-12-18T12:12:26.590Z,8.80
2018-12-18T12:14:30.274Z,8.80
2018-12-18T12:16:34.152Z,8.80
2018-12-18T12:18:38.166Z,8.80
2018-12-18T12:20:42.790Z,8.80
2018-12-18T12:22:46.550Z,8.90
2018-12-18T12:24:50.520Z,8.90
2018-12-18T12:26:58.521Z,9.00
2018-12-18T12:29:03.041Z,9.00
2018-12-18T12:31:07.148Z,9.00
2018-12-18T12:33:10.955Z,9.00
2018-12-18T12:35:16.555Z,9.00
2018-12-18T12:37:20.210Z,9.10
2018-12-18T12:39:24.220Z,9.10
2018-12-18T12:41:27.379Z,9.10
2018-12-18T12:43:30.940Z,9.10
2018-12-18T12:45:34.894Z,9.10
2018-12-18T12:47:38.675Z,9.20
2018-12-18T12:49:44.806Z,9.20
2018-12-18T12:51:49.014Z,9.20
2018-12-18T12:53:52.307Z,9.20
2018-12-18T12:55:55.975Z,9.20
2018-12-18T12:58:00.594Z,9.20
2018-12-18T13:00:04.600Z,9.20
2018-12-18T13:02:08.336Z,9.20
2018-12-18T13:04:11.930Z,9.20
2018-12-18T13:06:16.862Z,9.10
2018-12-18T13:08:21.152Z,9.10
2018-12-18T13:10:24.395Z,9.10
2018-12-18T13:15:25.640Z,9.00
2018-12-18T13:17:29.297Z,9.00
2018-12-18T13:22:26.971Z,8.90
2018-12-18T13:24:30.129Z,8.90
2018-12-18T13:26:33.326Z,8.80
2018-12-18T13:28:36.447Z,8.80
2018-12-18T13:30:39.581Z,8.70
2018-12-18T13:32:44.188Z,8.70
2018-12-18T13:34:47.538Z,8.70
2018-12-18T13:39:02.330Z,8.70
2018-12-18T13:41:12.537Z,8.60
2018-12-18T13:45:30.727Z,8.60
2018-12-18T13:47:33.858Z,8.60
2018-12-18T13:49:37.058Z,8.60
2018-12-18T13:51:40.404Z,8.60
2018-12-18T13:53:44.904Z,8.50
2018-12-18T13:55:48.266Z,8.50
2018-12-18T13:57:51.539Z,8.50
2018-12-18T13:59:54.697Z,8.40
2018-12-18T14:01:58.079Z,8.40
2018-12-18T14:04:02.507Z,8.40
2018-12-18T14:06:05.892Z,8.30
2018-12-18T14:08:09.115Z,8.30
2018-12-18T14:10:14.015Z,8.30
2018-12-18T14:12:30.131Z,8.20
2018-12-18T14:22:00.931Z,8.00
2018-12-18T14:24:04.723Z,7.90
2018-12-18T14:26:08.081Z,7.80
2018-12-18T14:28:30.991Z,7.80
2018-12-18T14:30:34.401Z,7.80
2018-12-18T14:32:41.441Z,7.70
2018-12-18T14:34:45.052Z,7.70
2018-12-18T14:36:56.154Z,7.70
2018-12-18T14:38:57.230Z,7.60
2018-12-18T14:43:53.730Z,7.50
2018-12-18T14:46:13.723Z,7.50
2018-12-18T14:48:16.864Z,7.40
2018-12-18T14:50:20.459Z,7.30
2018-12-18T14:52:23.823Z,7.30
2018-12-18T14:54:27.635Z,7.20
2018-12-18T14:56:31.105Z,7.10
2018-12-18T14:58:34.430Z,7.10
2018-12-18T15:00:37.652Z,7.00
2018-12-18T15:02:40.864Z,6.90
2018-12-18T15:04:43.989Z,6.90
2018-12-18T15:06:48.970Z,6.80
2018-12-18T15:11:32.698Z,6.70
2018-12-18T15:17:02.963Z,6.60
2018-12-18T16:14:36.482Z,5.50
2018-12-18T16:16:44.064Z,5.40
2018-12-18T16:18:50.819Z,5.40
2018-12-18T16:20:57.957Z,5.30
2018-12-18T16:23:01.354Z,5.30
2018-12-18T16:25:04.752Z,5.30
2018-12-18T16:27:07.910Z,5.20
2018-12-18T16:29:11.140Z,5.10
2018-12-18T16:31:14.447Z,5.10
2018-12-18T16:33:17.640Z,5.10
2018-12-18T16:35:20.880Z,5.00
2018-12-18T16:37:24.074Z,5.00
2018-12-18T16:39:27.245Z,4.90
2018-12-18T16:41:30.569Z,4.90
2018-12-18T16:43:33.817Z,4.90
2018-12-18T16:45:37.923Z,4.90
2018-12-18T16:47:41.075Z,4.80
2018-12-18T16:49:44.342Z,4.80
2018-12-18T16:51:47.506Z,4.80
2018-12-18T16:53:53.111Z,4.80
2018-12-18T17:48:26.436Z,4.40
2018-12-18T20:15:27.172Z,3.60
2018-12-18T20:49:45.594Z,4.00
2018-12-18T21:34:18.434Z,4.10
2018-12-18T21:59:27.753Z,3.70
2018-12-18T22:01:48.290Z,3.60
2018-12-18T22:18:45.850Z,3.60
2018-12-18T22:23:45.305Z,3.60
2018-12-18T22:25:56.296Z,3.60
2018-12-18T22:28:00.119Z,3.60
2018-12-18T22:32:38.390Z,3.70
2018-12-18T22:35:03.450Z,3.80
2018-12-18T22:37:25.483Z,3.80
2018-12-18T22:39:49.242Z,3.90
2018-12-18T22:42:04.561Z,3.90
2018-12-18T22:44:19.907Z,4.00
2018-12-18T22:49:07.462Z,4.00
2018-12-18T22:51:33.831Z,4.10
2018-12-18T22:56:18.938Z,4.10
2018-12-18T22:58:38.077Z,4.20
2018-12-18T23:00:50.307Z,4.20
2018-12-18T23:03:00.154Z,4.20
2018-12-18T23:05:08.633Z,4.20
2018-12-18T23:07:14.228Z,4.20
2018-12-18T23:09:19.600Z,4.30
2018-12-18T23:11:24.152Z,4.30
2018-12-18T23:13:30.891Z,4.30
2018-12-18T23:15:40.082Z,4.30
2018-12-18T23:17:46.751Z,4.30
2018-12-18T23:20:02.886Z,4.30
2018-12-18T23:22:18.378Z,4.30
2018-12-18T23:24:31.185Z,4.30
2018-12-18T23:26:53.013Z,4.30
2018-12-18T23:29:15.753Z,4.20
2018-12-18T23:31:32.424Z,4.30
2018-12-18T23:34:02.230Z,4.30
2018-12-18T23:38:34.395Z,4.30
2018-12-18T23:40:52.252Z,4.30
2018-12-18T23:43:11.417Z,4.40
2018-12-18T23:45:25.636Z,4.40
2018-12-18T23:47:33.181Z,4.40
2018-12-18T23:49:43.566Z,4.40
2018-12-18T23:51:57.388Z,4.50
2018-12-18T23:54:10.798Z,4.50
2018-12-18T23:56:24.689Z,4.50
2018-12-18T23:58:36.977Z,4.60
